Aérodrome :
LOGIN :

S'inscrire | Disclaimer

   EN    FR    IT 

 










Légende :    VFR   VFR Marginal   IFR   IFR Intensif   IFR Très Intensif
Visi : 
Plafond : 
>= 8 km
>= 3000ft
5 à 8 km
1000 à 3000 ft
1500m à 5 km
500 à 1000 ft
800 à 1500m
200 à 500 ft
< 800m
< 200 ft
Symboles :   Orages  Brouillard  Fortes neiges  Fortes précipitations  Vent > 20 kt
SIGMETs :   Divers  Orages  Givrage  Turbulence  Onde Orograph.  Cendres Volcan.






- Altitude de l'aérodrome : -15 ft
- Code IATA : RTM


EHRD - Rotterdam Zestienhoven

DERNIER METAR :
  • 250655Z AUTO 25013G29KT 220V280 9999 FEW015CB BKN022 OVC026 06/04 Q1000 TEMPO 7000 -SHRA

METARs EXPIRÉS :
  • 250625Z AUTO 24015KT 200V260 9999 FEW015CB SCT024 BKN032 06/04 Q1000 REDZ TEMPO 7000 -SHRA
  • 250555Z AUTO 25011KT 220V280 9999 -RA FEW015CB SCT021 BKN030 07/04 Q1000 RERAUPRA TEMPO 7000 -SHRA
  • 250525Z AUTO 25012KT 210V270 9999 NSC 07/03 Q1000 TEMPO 7000 -SHRA FEW020CB
  • 250455Z AUTO 26013KT 230V290 9999 FEW033 07/02 Q1001 TEMPO 7000 -SHRA FEW020CB
  • 250425Z AUTO 26014KT 220V290 9999 FEW030 07/02 Q1001 NOSIG

TAF COR TAF EHRD
Valide du 25 à 06h jusqu'au 26 à 12h UTC


250548Z 2506/2612 25015KT 9999 SCT030
BECMG 2506/2509 26019G29KT
PROB30
TEMPO 2506/2511 7000 -SHRA FEW025CB
TEMPO 2511/2612 6000 -SHRA SCT025CB
PROB30
TEMPO 2514/2601 4000 SHRAGS TSRAGS SCT020CB BKN030
BECMG 2515/2518 23012KT
BECMG 2523/2602 29015KT
PROB30
TEMPO 2601/2612 30016G27KT 2500 SHRAGS TSRAGSSN BKN008 SCT020CB



MET'MAP, la Météo Aéronautique d'un coup d'oeil ! - Copyright ORBIFLY Décembre 2007 - Disclaimer

ORBIFLY MET'MAP TEAM :

Programmation & Développement : Alexandra Zaïnal
Sur une idée originale de : Baudouin d'Aumeries
Assistance à la programmation : Marc-Olivier Méhu
Soutien technique & logistique : Manuel Goepfert

Contact : metmap@orbifly.com




SOURCES & CREDITS :

   NOAA